Klamath Falls, OR

5:28 PM PST on November 27, 2014 (GMT -0800)
Klamath Falls City Schools | Change Station
CLOSE
Current Station
Personal Weather Station
Location: Klamath Falls, OR
Elevation: 4104 ft
Nearby Weather Stations

Elev 4104 ft 42.22 °N, 121.75 °W | Updated 8 seconds ago

Mostly Cloudy
Mostly Cloudy
48.0 °F
Feels Like 48 °F
N
0.0
Wind Variable Wind from North
Gusts 5.0 mph

Today
High -- | Low -- °F
--% Chance of Precip.
Yesterday
High -- | Low -- °F
Precip. -- in
7:12 AM 4:37 PM
Waxing Crescent, 35% visible
Pressure 30.03 in
Visibility 10.0 miles
Clouds Clear
Windchill 48 °F
Dew Point 29 °F
Humidity 47%
Rainfall 0.00 in
Snow Depth Not available.
UV 0 out of 12
Pollen .30 out of 12
Air Quality Not available.
Flu Activity Not available.
METAR KLMT 280053Z AUTO 17009KT 10SM CLR 09/M02 A3005 RMK AO2 SLP169 T00891022

More Conditions Fewer Conditions

Pressure 30.03 in
Visibility 10.0 miles
Clouds Clear
Windchill 48 °F
Dew Point 29 °F
Humidity 47%
Rainfall 0.00 in
Snow Depth Not available.
UV 0 out of 12
Pollen .30 out of 12
Air Quality Not available.
Flu Activity Not available.
METAR KLMT 280053Z AUTO 17009KT 10SM CLR 09/M02 A3005 RMK AO2 SLP169 T00891022

More Conditions Fewer Conditions

10-Day Weather Forecast

Almanac

Astronomy

Nov. 27, 2014 Rise Set
Actual Time
Civil Twilight
Nautical Twilight
Astronomical Twilight
Moon
Length of Visible Light
Length of Day
Tomorrow will be .
, % of the Moon is Illuminated

Today's Extremes

State Highs State Lows

Community

WunderPhotos

Upload Photos

1,774,148 photos uploaded!

WunderBlogs® & News

Nearby

Air Quality

  Air Quality AQ Index Pollutant
Not available.

Snow Depth

Station Depth Elevation

Earthquake Activity

City Distance Mag. Time & Date
Minimum magnitude displayed is 2.5.

Coastal Water Temperatures

Place Temperature

Nearby Weather Stations